createdAt,value
2022-10-21T00:03:26.158Z,12.38
2022-10-21T00:08:28.740Z,12.33
2022-10-21T00:13:31.993Z,12.36
2022-10-21T00:18:35.701Z,12.32
2022-10-21T00:23:37.548Z,12.33
2022-10-21T00:28:39.419Z,12.33
2022-10-21T00:33:41.857Z,12.34
2022-10-21T00:38:49.738Z,12.23
2022-10-21T00:44:03.239Z,12.24
2022-10-21T00:49:27.954Z,12.34
2022-10-21T00:54:31.513Z,12.35
2022-10-21T00:59:40.914Z,12.11
2022-10-21T01:04:43.597Z,12.02
2022-10-21T01:09:45.795Z,11.99
2022-10-21T01:15:17.935Z,11.95
2022-10-21T01:20:44.373Z,11.78
2022-10-21T01:26:11.082Z,11.81
2022-10-21T01:31:25.123Z,11.83
2022-10-21T01:36:41.893Z,11.91
2022-10-21T01:42:20.400Z,11.81
2022-10-21T01:47:32.962Z,11.74
2022-10-21T01:52:35.047Z,11.74
2022-10-21T01:57:41.683Z,11.88
2022-10-21T02:02:47.604Z,11.99
2022-10-21T02:07:52.296Z,12.01
2022-10-21T02:12:57.631Z,11.92
2022-10-21T02:18:08.049Z,11.90
2022-10-21T02:23:15.558Z,11.96
2022-10-21T02:28:18.407Z,12.03
2022-10-21T02:33:29.797Z,12.03
2022-10-21T02:38:38.756Z,11.90
2022-10-21T02:43:49.825Z,11.68
2022-10-21T02:48:51.597Z,11.74
2022-10-21T02:53:53.470Z,11.73
2022-10-21T02:58:55.278Z,11.74
2022-10-21T03:03:57.070Z,11.80
2022-10-21T03:08:58.897Z,11.81
2022-10-21T03:14:00.769Z,11.84
2022-10-21T03:19:02.540Z,11.77
2022-10-21T03:24:10.955Z,11.87
2022-10-21T03:29:21.465Z,11.83
2022-10-21T03:34:23.419Z,11.84
2022-10-21T03:39:25.197Z,11.89
2022-10-21T03:44:27.029Z,11.97
2022-10-21T03:49:28.902Z,12.03
2022-10-21T03:54:30.852Z,12.05
2022-10-21T03:59:32.611Z,12.14
2022-10-21T04:04:34.366Z,12.17
2022-10-21T04:09:36.213Z,12.03
2022-10-21T04:14:38.206Z,12.12
2022-10-21T04:19:40.009Z,12.20
2022-10-21T04:24:41.836Z,12.24
2022-10-21T04:29:43.715Z,12.33
2022-10-21T04:34:45.817Z,12.29
2022-10-21T04:39:47.667Z,12.34
2022-10-21T04:44:49.484Z,12.36
2022-10-21T04:49:51.212Z,12.39
2022-10-21T04:54:53.059Z,12.42
2022-10-21T04:59:54.909Z,12.46
2022-10-21T05:04:56.668Z,12.43
2022-10-21T05:09:58.484Z,12.40
2022-10-21T05:15:00.823Z,12.44
2022-10-21T05:20:07.076Z,12.44
2022-10-21T05:25:09.113Z,12.38
2022-10-21T05:30:12.217Z,12.42
2022-10-21T05:35:14.243Z,12.31
2022-10-21T05:40:16.233Z,12.27
2022-10-21T05:45:18.124Z,12.33
2022-10-21T05:50:19.915Z,12.41
2022-10-21T05:55:21.750Z,12.43
2022-10-21T06:00:23.687Z,12.42
2022-10-21T06:05:25.709Z,12.41
2022-10-21T06:10:29.167Z,12.33
2022-10-21T06:15:31.298Z,12.35
2022-10-21T06:20:36.207Z,12.38
2022-10-21T06:25:38.125Z,12.42
2022-10-21T06:30:39.990Z,12.49
2022-10-21T06:35:41.959Z,12.50
2022-10-21T06:40:43.878Z,12.45
2022-10-21T06:45:45.891Z,12.47
2022-10-21T06:50:47.705Z,12.48
2022-10-21T06:55:49.498Z,12.50
2022-10-21T07:00:51.477Z,12.61
2022-10-21T07:05:59.957Z,12.65
2022-10-21T07:11:02.384Z,12.70
2022-10-21T07:16:14.057Z,12.77
2022-10-21T07:21:18.954Z,12.80
2022-10-21T07:26:22.495Z,12.74
2022-10-21T07:31:24.515Z,12.74
2022-10-21T07:36:29.005Z,12.78
2022-10-21T07:41:40.765Z,12.85
2022-10-21T07:46:43.863Z,12.96
2022-10-21T07:51:46.113Z,13.00
2022-10-21T07:56:50.345Z,13.08
2022-10-21T08:01:53.458Z,13.12
2022-10-21T08:06:56.517Z,13.16
2022-10-21T08:11:59.128Z,13.20
2022-10-21T08:17:01.062Z,13.29
2022-10-21T08:22:03.209Z,13.26
2022-10-21T08:27:06.180Z,13.29
2022-10-21T08:32:08.091Z,13.26
2022-10-21T08:37:09.938Z,13.33
2022-10-21T08:42:15.348Z,13.26
2022-10-21T08:47:27.930Z,13.20
2022-10-21T08:52:44.067Z,13.25
2022-10-21T08:57:48.092Z,13.28
2022-10-21T09:03:16.372Z,13.42
2022-10-21T09:08:40.800Z,13.59
2022-10-21T09:14:00.261Z,13.69
2022-10-21T09:19:24.671Z,13.76
2022-10-21T09:24:52.870Z,13.88
2022-10-21T09:30:02.712Z,14.03
2022-10-21T09:35:33.529Z,13.99
2022-10-21T09:40:35.523Z,13.99
2022-10-21T09:45:43.790Z,13.97
2022-10-21T09:50:48.713Z,13.99
2022-10-21T09:55:56.398Z,14.09
2022-10-21T10:00:59.125Z,14.12
2022-10-21T10:06:03.431Z,14.18
2022-10-21T10:11:14.704Z,14.19
2022-10-21T10:16:33.956Z,14.26
2022-10-21T10:21:36.522Z,14.35
2022-10-21T10:26:41.324Z,14.41
2022-10-21T10:31:54.084Z,14.39
2022-10-21T10:37:26.207Z,14.38
2022-10-21T10:42:37.739Z,14.40
2022-10-21T10:47:48.995Z,14.62
2022-10-21T10:53:22.665Z,14.76
2022-10-21T10:58:28.604Z,14.95
2022-10-21T11:03:41.231Z,14.99
2022-10-21T11:08:51.242Z,15.29
2022-10-21T11:13:54.031Z,15.63
2022-10-21T11:19:08.955Z,15.73
2022-10-21T11:24:51.089Z,15.46
2022-10-21T11:30:10.948Z,15.72
2022-10-21T11:35:37.617Z,16.09
2022-10-21T11:40:49.545Z,16.41
2022-10-21T11:45:54.475Z,16.75
2022-10-21T11:50:56.265Z,17.09
2022-10-21T11:55:58.205Z,17.49
2022-10-21T12:01:23.989Z,17.89
2022-10-21T12:06:34.676Z,18.65
2022-10-21T12:12:05.835Z,19.18
2022-10-21T12:17:14.125Z,19.05
2022-10-21T12:22:16.242Z,19.08
2022-10-21T12:27:40.318Z,19.12
2022-10-21T12:32:51.109Z,19.16
2022-10-21T12:37:52.896Z,19.33
2022-10-21T12:43:01.604Z,19.17
2022-10-21T12:48:22.486Z,18.76
2022-10-21T12:53:49.457Z,18.57
2022-10-21T12:58:59.316Z,18.65
2022-10-21T13:04:01.537Z,18.53
2022-10-21T13:09:03.576Z,18.62
2022-10-21T13:14:17.637Z,18.37
2022-10-21T13:19:19.544Z,18.29
2022-10-21T13:24:31.305Z,18.23
2022-10-21T13:29:48.758Z,18.12
2022-10-21T13:35:11.777Z,18.13
2022-10-21T13:40:19.698Z,18.17
2022-10-21T13:45:30.801Z,18.19
2022-10-21T13:50:38.678Z,18.32
2022-10-21T13:55:40.456Z,18.28
2022-10-21T14:00:42.677Z,18.01
2022-10-21T14:05:52.738Z,17.91
2022-10-21T14:10:59.459Z,17.87
2022-10-21T14:16:01.942Z,17.88
2022-10-21T14:21:05.359Z,17.92
2022-10-21T14:26:08.868Z,18.01
2022-10-21T14:31:13.919Z,18.10
2022-10-21T14:36:19.920Z,18.25
2022-10-21T14:41:38.222Z,18.23
2022-10-21T14:46:43.060Z,18.53
2022-10-21T14:51:45.136Z,18.24
2022-10-21T14:56:47.316Z,18.11
2022-10-21T15:01:49.633Z,17.82
2022-10-21T15:07:01.898Z,17.74
2022-10-21T15:12:18.777Z,17.56
2022-10-21T15:17:22.724Z,17.45
2022-10-21T15:22:29.368Z,17.34
2022-10-21T15:27:40.128Z,17.16
2022-10-21T15:32:43.747Z,16.95
2022-10-21T15:37:53.237Z,16.82
2022-10-21T15:42:56.861Z,16.72
2022-10-21T15:47:58.729Z,16.64
2022-10-21T15:53:03.446Z,16.64
2022-10-21T15:58:07.961Z,16.43
2022-10-21T16:03:10.475Z,16.45
2022-10-21T16:08:12.799Z,16.46
2022-10-21T16:13:15.206Z,16.54
2022-10-21T16:18:17.260Z,16.58
2022-10-21T16:23:19.122Z,16.54
2022-10-21T16:28:21.108Z,16.38
2022-10-21T16:33:25.859Z,16.42
2022-10-21T16:38:27.763Z,16.22
2022-10-21T16:43:29.616Z,16.14
2022-10-21T16:48:31.766Z,16.02
2022-10-21T16:53:33.791Z,15.84
2022-10-21T16:58:36.047Z,15.81
2022-10-21T17:03:38.114Z,15.67
2022-10-21T17:08:39.971Z,15.56
2022-10-21T17:13:43.486Z,15.34
2022-10-21T17:18:45.464Z,15.30
2022-10-21T17:23:51.717Z,15.21
2022-10-21T17:28:54.108Z,15.12
2022-10-21T17:34:07.543Z,15.04
2022-10-21T17:39:09.437Z,14.97
2022-10-21T17:44:14.426Z,14.95
2022-10-21T17:49:16.286Z,14.88
2022-10-21T17:54:22.874Z,14.85
2022-10-21T17:59:28.576Z,14.66
2022-10-21T18:04:31.852Z,14.57
2022-10-21T18:14:41.084Z,14.43
2022-10-21T18:19:42.927Z,14.39
2022-10-21T18:24:45.175Z,14.34
2022-10-21T18:29:47.196Z,14.29
2022-10-21T18:34:49.299Z,14.32
2022-10-21T18:39:56.801Z,14.25
2022-10-21T18:45:00.874Z,14.28
2022-10-21T18:50:02.776Z,14.33
2022-10-21T19:00:12.005Z,14.24
2022-10-21T19:05:13.914Z,14.19
2022-10-21T19:10:15.908Z,14.18
2022-10-21T19:15:18.641Z,14.18
2022-10-21T19:20:20.523Z,14.19
2022-10-21T19:25:22.853Z,14.17
2022-10-21T19:30:24.685Z,14.07
2022-10-21T19:35:27.413Z,14.04
2022-10-21T19:40:29.376Z,14.03
2022-10-21T19:45:31.291Z,13.90
2022-10-21T19:50:33.113Z,13.72
2022-10-21T19:55:35.045Z,13.66
2022-10-21T20:00:37.182Z,13.51
2022-10-21T20:05:42.725Z,13.42
2022-10-21T20:10:45.739Z,13.47
2022-10-21T20:15:48.109Z,13.60
2022-10-21T20:20:50.020Z,13.61
2022-10-21T20:25:59.302Z,13.66
2022-10-21T20:31:04.351Z,13.58
2022-10-21T20:36:10.102Z,13.56
2022-10-21T20:41:14.996Z,13.58
2022-10-21T20:46:18.203Z,13.58
2022-10-21T20:51:26.095Z,13.56
2022-10-21T20:56:30.081Z,13.51
2022-10-21T21:01:35.236Z,13.49
2022-10-21T21:06:42.975Z,13.47
2022-10-21T21:11:45.522Z,13.48
2022-10-21T21:16:47.382Z,13.43
2022-10-21T21:21:49.263Z,13.41
2022-10-21T21:26:51.223Z,13.40
2022-10-21T21:31:53.152Z,13.42
2022-10-21T21:36:54.973Z,13.34
2022-10-21T21:41:56.812Z,13.32
2022-10-21T21:46:58.666Z,13.44
2022-10-21T21:52:00.580Z,13.43
2022-10-21T21:57:29.741Z,13.42
2022-10-21T22:02:24.547Z,13.38
2022-10-21T22:07:26.741Z,13.38
2022-10-21T22:12:28.811Z,13.37
2022-10-21T22:17:30.655Z,13.44
2022-10-21T22:22:34.660Z,13.47
2022-10-21T22:27:37.435Z,13.50
2022-10-21T22:32:39.567Z,13.55
2022-10-21T22:37:41.591Z,13.57
2022-10-21T22:47:46.448Z,13.34
2022-10-21T22:52:48.287Z,13.40
2022-10-21T22:57:50.157Z,13.43
2022-10-21T23:02:51.945Z,13.44
2022-10-21T23:07:53.707Z,13.43
2022-10-21T23:12:55.576Z,13.39
2022-10-21T23:17:58.466Z,13.39
2022-10-21T23:23:00.354Z,13.48
2022-10-21T23:28:02.156Z,13.52
2022-10-21T23:33:03.998Z,13.46
2022-10-21T23:38:05.871Z,13.36
2022-10-21T23:43:07.687Z,13.41
2022-10-21T23:48:09.492Z,13.46
2022-10-21T23:53:11.287Z,13.45
2022-10-21T23:58:13.064Z,13.49
